Time;durP1;ratioP1;P1;durP2;ratioP2;P2;SDS_P1;SDS_P2;PMS_P1;PMS_P2;Temp;Humidity;BMP_temperature;BMP_pressure;BME280_temperature;BME280_humidity;BME280_pressure;Samples;Min_cycle;Max_cycle;Signal;HPM_P1;HPM_P2
2022/10/09 00:01:18;;;;;;;2.83;1.70;;;23.60;55.70;;;;;;4998021;28;20057;-64
2022/10/09 00:03:47;;;;;;;2.63;1.63;;;23.50;55.70;;;;;;4998299;28;20032;-65
2022/10/09 00:06:25;;;;;;;2.78;1.77;;;23.50;55.70;;;;;;4987125;28;20508;-64
2022/10/09 00:08:51;;;;;;;2.80;1.60;;;23.50;55.70;;;;;;5000870;28;20480;-64
2022/10/09 00:11:20;;;;;;;2.28;1.58;;;23.50;55.80;;;;;;4995178;28;20470;-64
2022/10/09 00:13:46;;;;;;;1.95;1.40;;;23.50;55.80;;;;;;4999599;28;20098;-64
2022/10/09 00:16:14;;;;;;;2.78;1.95;;;23.40;55.80;;;;;;4995490;28;20035;-64
2022/10/09 00:18:40;;;;;;;2.95;1.70;;;23.40;55.90;;;;;;4961038;28;20027;-64
2022/10/09 00:21:18;;;;;;;2.67;1.75;;;23.40;55.80;;;;;;4997656;28;20030;-65
2022/10/09 00:23:43;;;;;;;2.72;1.45;;;23.40;55.90;;;;;;4966132;28;20422;-64
2022/10/09 00:26:10;;;;;;;2.47;1.70;;;23.40;56.00;;;;;;4993181;28;20100;-64
2022/10/09 00:28:36;;;;;;;2.47;1.55;;;23.30;55.90;;;;;;4981418;28;20028;-64
2022/10/09 00:31:08;;;;;;;3.35;1.85;;;23.30;55.90;;;;;;4999578;28;20026;-65
2022/10/09 00:33:34;;;;;;;2.72;1.63;;;23.30;56.00;;;;;;4967760;28;20022;-64
2022/10/09 00:36:10;;;;;;;2.00;1.40;;;23.30;56.00;;;;;;4999407;28;20065;-64
2022/10/09 00:38:35;;;;;;;2.22;1.40;;;23.20;55.90;;;;;;4995148;28;20096;-65
2022/10/09 00:41:01;;;;;;;2.10;1.50;;;23.20;56.50;;;;;;5002908;28;20061;-64
2022/10/09 00:43:50;;;;;;;2.10;1.40;;;23.20;56.00;;;;;;4999549;28;20496;-64
2022/10/09 00:46:22;;;;;;;2.72;1.70;;;23.20;56.00;;;;;;4998147;28;20378;-64
2022/10/09 00:48:57;;;;;;;2.50;1.63;;;23.20;56.00;;;;;;4997289;28;20421;-64
2022/10/09 00:51:23;;;;;;;2.65;1.58;;;23.20;56.00;;;;;;4994193;28;20541;-64
2022/10/09 00:53:49;;;;;;;2.50;1.70;;;23.10;56.00;;;;;;4992497;28;20018;-64
2022/10/09 00:56:15;;;;;;;2.17;1.40;;;23.10;56.00;;;;;;4995792;28;20038;-64
2022/10/09 00:58:40;;;;;;;2.70;1.50;;;23.10;56.10;;;;;;4982010;28;20521;-64
2022/10/09 01:01:06;;;;;;;3.15;1.55;;;23.10;56.10;;;;;;4996462;28;20065;-65
2022/10/09 01:03:31;;;;;;;2.92;1.60;;;23.10;56.10;;;;;;4992772;28;20799;-64
2022/10/09 01:06:12;;;;;;;2.67;1.50;;;23.10;56.10;;;;;;4959183;28;20022;-64
2022/10/09 01:08:51;;;;;;;2.22;1.58;;;23.10;56.60;;;;;;4997937;28;20022;-64
2022/10/09 01:11:31;;;;;;;2.58;1.60;;;23.10;56.10;;;;;;5000263;28;20018;-64
2022/10/09 01:14:06;;;;;;;2.63;1.30;;;23.10;56.20;;;;;;4998883;28;20049;-64
2022/10/09 01:16:36;;;;;;;2.38;1.50;;;23.00;56.10;;;;;;4999781;28;20493;-64
2022/10/09 01:19:05;;;;;;;2.30;1.50;;;23.00;56.20;;;;;;4996429;28;20054;-65
2022/10/09 01:21:37;;;;;;;2.45;1.55;;;23.00;56.20;;;;;;4994900;28;20026;-64
2022/10/09 01:24:30;;;;;;;2.88;1.45;;;23.00;56.20;;;;;;4997451;28;20038;-65
2022/10/09 01:27:11;;;;;;;2.20;1.33;;;23.00;56.20;;;;;;4997935;28;20037;-64
2022/10/09 01:29:59;;;;;;;2.50;1.40;;;22.90;56.20;;;;;;4998045;28;20022;-64
2022/10/09 01:32:35;;;;;;;2.20;1.52;;;22.90;56.20;;;;;;4998564;28;20034;-65
2022/10/09 01:35:04;;;;;;;2.40;1.70;;;22.90;56.20;;;;;;4997794;28;20037;-65
2022/10/09 01:37:32;;;;;;;2.40;1.35;;;22.90;56.20;;;;;;4982071;28;20124;-64
2022/10/09 01:40:00;;;;;;;2.55;1.42;;;22.90;56.20;;;;;;4996678;28;20424;-65
2022/10/09 01:42:27;;;;;;;2.08;1.27;;;22.80;56.20;;;;;;4995365;28;20026;-64
2022/10/09 01:44:53;;;;;;;2.05;1.38;;;22.80;56.20;;;;;;4995220;28;20493;-64
2022/10/09 01:47:21;;;;;;;2.53;1.48;;;22.80;56.20;;;;;;4977954;28;20060;-65
2022/10/09 01:50:19;;;;;;;2.35;1.50;;;22.80;56.20;;;;;;4981974;28;20475;-64
2022/10/09 01:52:50;;;;;;;2.67;1.50;;;22.80;56.30;;;;;;4997927;28;20381;-64
2022/10/09 01:55:29;;;;;;;2.58;1.40;;;22.80;56.30;;;;;;4996080;28;20034;-64
2022/10/09 01:58:23;;;;;;;2.13;1.35;;;22.70;56.30;;;;;;4976110;28;20065;-64
2022/10/09 02:01:01;;;;;;;2.38;1.42;;;22.70;56.30;;;;;;4996446;28;20144;-64
2022/10/09 02:03:29;;;;;;;2.15;1.27;;;22.70;56.30;;;;;;4997508;28;20516;-64
2022/10/09 02:05:55;;;;;;;2.47;1.63;;;22.70;56.80;;;;;;4992861;28;20026;-64
2022/10/09 02:08:22;;;;;;;2.15;1.40;;;22.70;56.30;;;;;;4990628;28;20098;-64
2022/10/09 02:10:52;;;;;;;2.13;1.35;;;22.70;56.30;;;;;;4999504;28;20038;-64
2022/10/09 02:13:17;;;;;;;1.77;1.23;;;22.60;56.30;;;;;;4998914;28;20074;-64
2022/10/09 02:15:48;;;;;;;2.20;1.50;;;22.60;56.30;;;;;;4998755;28;20026;-64
2022/10/09 02:18:18;;;;;;;2.58;1.52;;;22.60;56.40;;;;;;4995597;28;20539;-64
2022/10/09 02:20:50;;;;;;;2.33;1.35;;;22.60;56.40;;;;;;4995174;28;20023;-65
2022/10/09 02:23:17;;;;;;;2.35;1.30;;;22.60;56.40;;;;;;4993856;28;20033;-64
2022/10/09 02:25:42;;;;;;;2.17;1.40;;;22.60;56.40;;;;;;4997528;28;20065;-64
2022/10/09 02:28:08;;;;;;;1.98;1.20;;;22.60;56.40;;;;;;5000295;28;20029;-64
2022/10/09 02:30:50;;;;;;;1.90;1.10;;;22.60;56.40;;;;;;4999535;28;20031;-64
2022/10/09 02:33:16;;;;;;;2.15;1.30;;;22.60;56.40;;;;;;4999540;28;20033;-65
2022/10/09 02:35:42;;;;;;;2.30;1.30;;;22.60;56.50;;;;;;5000026;28;20029;-64
2022/10/09 02:38:08;;;;;;;2.28;1.17;;;22.50;56.40;;;;;;4998903;28;20048;-64
2022/10/09 02:40:33;;;;;;;1.85;1.13;;;22.50;56.50;;;;;;5000280;28;20366;-65
2022/10/09 02:42:59;;;;;;;2.08;1.27;;;22.50;56.50;;;;;;4997683;28;20027;-64
2022/10/09 02:45:24;;;;;;;1.77;1.15;;;22.50;56.50;;;;;;4998592;28;20062;-64
2022/10/09 02:47:50;;;;;;;2.25;1.40;;;22.50;56.50;;;;;;4995650;28;20050;-65
2022/10/09 02:50:16;;;;;;;1.92;1.30;;;22.50;56.50;;;;;;4993410;28;20397;-65
2022/10/09 02:52:42;;;;;;;1.55;1.15;;;22.50;56.50;;;;;;4972489;28;20771;-65
2022/10/09 02:55:07;;;;;;;1.67;1.20;;;22.50;56.50;;;;;;4999878;28;20026;-64
2022/10/09 02:57:33;;;;;;;2.70;1.40;;;22.40;56.50;;;;;;5000011;28;20035;-63
2022/10/09 02:59:58;;;;;;;1.90;1.30;;;22.40;56.50;;;;;;4999127;28;20022;-64
2022/10/09 03:02:25;;;;;;;2.20;1.30;;;22.40;56.50;;;;;;5000060;28;20124;-64
2022/10/09 03:04:50;;;;;;;1.85;1.10;;;22.40;56.50;;;;;;4999803;28;20034;-64
2022/10/09 03:07:16;;;;;;;2.03;1.40;;;22.40;56.60;;;;;;5001141;28;20036;-64
2022/10/09 03:09:41;;;;;;;1.77;1.15;;;22.40;56.50;;;;;;5001867;28;20018;-64
2022/10/09 03:12:07;;;;;;;2.38;1.20;;;22.40;56.60;;;;;;5000613;28;20054;-64
2022/10/09 03:14:33;;;;;;;1.95;1.30;;;22.40;56.60;;;;;;4960237;28;1110425;-64
2022/10/09 03:16:59;;;;;;;1.92;1.27;;;22.30;56.60;;;;;;5000254;28;20084;-64
2022/10/09 03:19:25;;;;;;;2.05;1.20;;;22.30;56.60;;;;;;4983887;28;20480;-64
2022/10/09 03:21:50;;;;;;;1.65;1.10;;;22.40;56.60;;;;;;5001916;28;20042;-66
2022/10/09 03:24:16;;;;;;;2.10;1.23;;;22.30;56.60;;;;;;4997592;28;20369;-64
2022/10/09 03:26:42;;;;;;;1.73;1.23;;;22.30;56.60;;;;;;4993484;28;20027;-64
2022/10/09 03:29:07;;;;;;;1.90;1.20;;;22.30;56.60;;;;;;4991674;28;20022;-64
2022/10/09 03:31:33;;;;;;;2.55;1.20;;;22.30;56.60;;;;;;5001340;28;20528;-64
2022/10/09 03:33:58;;;;;;;1.80;1.20;;;22.30;56.60;;;;;;4997724;28;20046;-65
2022/10/09 03:36:24;;;;;;;1.70;1.20;;;22.30;56.70;;;;;;4995430;28;20030;-64
2022/10/09 03:38:50;;;;;;;1.77;1.20;;;22.30;56.60;;;;;;4999032;28;20029;-64
2022/10/09 03:41:15;;;;;;;2.30;1.27;;;22.20;56.60;;;;;;4997491;28;20026;-64
2022/10/09 03:43:41;;;;;;;1.85;1.13;;;22.30;56.70;;;;;;5003644;28;20477;-65
2022/10/09 03:46:07;;;;;;;2.05;1.20;;;22.20;56.70;;;;;;5000760;28;20457;-64
2022/10/09 03:48:34;;;;;;;1.85;1.10;;;22.20;56.70;;;;;;5003589;28;20374;-65
2022/10/09 03:50:59;;;;;;;1.55;1.00;;;22.20;56.70;;;;;;5000246;28;20027;-65
2022/10/09 03:53:26;;;;;;;2.15;1.10;;;22.20;56.70;;;;;;4999244;28;20033;-64
2022/10/09 03:55:52;;;;;;;1.70;1.05;;;22.20;56.70;;;;;;5000164;28;20037;-64
2022/10/09 03:58:17;;;;;;;2.17;1.30;;;22.20;56.80;;;;;;4999172;28;20033;-65
2022/10/09 04:00:46;;;;;;;1.38;1.00;;;22.10;56.70;;;;;;4997790;28;20363;-65
2022/10/09 04:03:11;;;;;;;1.80;1.30;;;22.20;56.80;;;;;;4993143;28;20022;-65
2022/10/09 04:05:37;;;;;;;1.55;1.05;;;22.20;56.80;;;;;;4998921;28;20031;-65
2022/10/09 04:08:03;;;;;;;1.30;1.10;;;22.20;56.80;;;;;;4996395;28;20026;-65
2022/10/09 04:10:28;;;;;;;2.20;1.30;;;22.10;56.80;;;;;;5001311;28;20453;-64
2022/10/09 04:12:54;;;;;;;1.55;1.02;;;22.10;56.80;;;;;;4997199;28;20022;-64
2022/10/09 04:15:19;;;;;;;2.00;1.10;;;22.10;57.30;;;;;;5001440;28;20075;-64
2022/10/09 04:17:45;;;;;;;1.73;1.08;;;22.10;56.80;;;;;;4991395;28;20485;-64
2022/10/09 04:20:11;;;;;;;1.40;1.00;;;22.10;56.80;;;;;;4987685;28;20031;-63
2022/10/09 04:22:36;;;;;;;2.08;1.10;;;22.10;56.80;;;;;;4994443;28;20057;-64
2022/10/09 04:25:02;;;;;;;1.90;1.08;;;22.10;56.90;;;;;;4998691;28;20037;-67
2022/10/09 04:27:28;;;;;;;1.58;1.20;;;22.10;56.90;;;;;;5002793;28;20626;-64
2022/10/09 04:29:53;;;;;;;1.52;1.10;;;22.10;56.90;;;;;;5000952;28;20022;-64
2022/10/09 04:32:19;;;;;;;1.83;1.10;;;22.10;56.90;;;;;;5000084;28;20121;-64
2022/10/09 04:34:45;;;;;;;1.83;1.13;;;22.10;56.90;;;;;;5001747;28;20030;-64
2022/10/09 04:37:10;;;;;;;1.55;1.10;;;22.00;56.90;;;;;;4983257;28;20041;-64
2022/10/09 04:39:36;;;;;;;1.60;1.10;;;22.10;57.00;;;;;;4996105;28;20026;-64
2022/10/09 04:42:01;;;;;;;1.83;1.23;;;22.00;56.90;;;;;;5001223;28;20054;-64
2022/10/09 04:44:27;;;;;;;1.58;1.08;;;22.00;57.00;;;;;;4996834;28;20037;-65
2022/10/09 04:46:53;;;;;;;1.98;1.13;;;22.00;57.00;;;;;;4994566;28;20113;-64
2022/10/09 04:49:18;;;;;;;1.30;1.00;;;22.00;57.00;;;;;;5000785;28;20053;-64
2022/10/09 04:51:44;;;;;;;2.20;1.00;;;22.00;57.60;;;;;;4997881;28;20026;-66
2022/10/09 04:54:10;;;;;;;2.03;1.00;;;22.00;57.00;;;;;;4991735;28;20205;-65
2022/10/09 04:56:36;;;;;;;1.63;1.10;;;22.00;57.00;;;;;;4990808;28;20036;-64
2022/10/09 04:59:02;;;;;;;1.40;1.08;;;22.00;57.00;;;;;;4992309;28;20034;-65
2022/10/09 05:01:28;;;;;;;1.73;0.93;;;22.00;57.00;;;;;;4999441;28;20509;-65
2022/10/09 05:03:54;;;;;;;1.45;0.90;;;22.00;57.00;;;;;;4996556;28;20485;-65
2022/10/09 05:06:21;;;;;;;1.52;1.10;;;22.00;57.00;;;;;;5000580;28;20032;-64
2022/10/09 05:08:47;;;;;;;1.63;1.10;;;22.00;57.00;;;;;;5000458;28;20136;-66
2022/10/09 05:11:15;;;;;;;1.23;1.00;;;22.00;57.00;;;;;;4998002;28;20044;-66
2022/10/09 05:13:44;;;;;;;1.20;1.00;;;22.00;57.10;;;;;;4983329;28;20076;-65
2022/10/09 05:16:12;;;;;;;1.00;0.90;;;21.90;57.60;;;;;;4999686;28;20014;-66
2022/10/09 05:18:49;;;;;;;1.30;0.90;;;21.90;57.10;;;;;;5001653;28;20101;-64
2022/10/09 05:21:15;;;;;;;1.20;0.90;;;21.90;57.10;;;;;;4998994;28;20025;-65
2022/10/09 05:23:41;;;;;;;1.40;0.90;;;21.90;57.10;;;;;;4997903;28;20026;-65
2022/10/09 05:26:16;;;;;;;1.08;0.90;;;21.90;57.10;;;;;;4997579;28;20109;-64
2022/10/09 05:28:41;;;;;;;1.40;0.80;;;21.90;57.20;;;;;;4994957;28;20025;-64
2022/10/09 05:31:08;;;;;;;1.30;1.00;;;21.90;57.60;;;;;;4993449;28;20027;-64
2022/10/09 05:33:34;;;;;;;1.40;0.90;;;21.90;57.20;;;;;;4995308;28;20030;-65
2022/10/09 05:36:02;;;;;;;1.05;0.70;;;21.90;57.20;;;;;;4978901;28;20018;-64
2022/10/09 05:38:28;;;;;;;1.33;1.00;;;21.90;57.20;;;;;;4982949;28;20338;-65
2022/10/09 05:40:55;;;;;;;1.70;0.80;;;21.90;57.20;;;;;;4998026;28;20030;-65
2022/10/09 05:43:28;;;;;;;1.33;0.82;;;21.90;57.20;;;;;;4998384;28;20041;-64
2022/10/09 05:45:54;;;;;;;1.50;0.90;;;21.90;57.20;;;;;;4982969;28;20069;-63
2022/10/09 05:48:21;;;;;;;1.60;1.02;;;21.90;57.20;;;;;;5000163;28;20053;-64
2022/10/09 05:50:47;;;;;;;1.73;1.17;;;21.90;57.20;;;;;;4998507;28;20046;-64
2022/10/09 05:53:13;;;;;;;1.25;0.88;;;21.80;57.20;;;;;;5000292;28;20022;-64
2022/10/09 05:55:39;;;;;;;2.40;1.02;;;21.80;57.10;;;;;;4984515;28;20160;-63
2022/10/09 05:58:04;;;;;;;1.30;0.80;;;21.80;57.20;;;;;;4994779;28;20039;-65
2022/10/09 06:00:31;;;;;;;1.77;1.00;;;21.80;57.20;;;;;;4997476;28;20034;-64
2022/10/09 06:02:57;;;;;;;1.48;1.00;;;21.80;57.20;;;;;;5000590;28;20461;-64
2022/10/09 06:05:23;;;;;;;1.27;0.90;;;21.80;57.20;;;;;;4997979;28;20109;-64
2022/10/09 06:07:48;;;;;;;0.82;0.80;;;21.80;57.30;;;;;;4998117;28;20116;-64
2022/10/09 06:10:14;;;;;;;1.27;0.85;;;21.80;57.30;;;;;;4997160;28;20031;-64
2022/10/09 06:12:40;;;;;;;1.35;0.80;;;21.80;57.30;;;;;;4974090;28;20447;-65
2022/10/09 06:15:06;;;;;;;1.00;0.80;;;21.80;57.30;;;;;;4980166;28;20061;-65
2022/10/09 06:17:32;;;;;;;1.50;1.00;;;21.80;57.40;;;;;;4997517;28;20086;-64
2022/10/09 06:19:59;;;;;;;1.00;0.85;;;21.80;57.40;;;;;;4980983;28;20037;-65
2022/10/09 06:22:25;;;;;;;1.63;0.90;;;21.80;57.90;;;;;;4992414;28;20037;-64
2022/10/09 06:24:50;;;;;;;1.60;0.90;;;21.80;57.50;;;;;;4993881;28;20025;-67
2022/10/09 06:27:16;;;;;;;1.13;0.80;;;21.80;57.50;;;;;;5000282;28;20560;-63
2022/10/09 06:29:42;;;;;;;1.70;0.93;;;21.80;57.50;;;;;;4998710;28;20026;-65
2022/10/09 06:32:08;;;;;;;1.45;0.88;;;21.80;57.50;;;;;;4977524;28;20026;-64
2022/10/09 06:34:33;;;;;;;1.95;1.10;;;21.80;57.60;;;;;;4996731;28;20504;-63
2022/10/09 06:36:59;;;;;;;1.27;0.80;;;21.70;57.50;;;;;;4997944;28;20021;-64
2022/10/09 06:39:25;;;;;;;1.60;0.90;;;21.80;57.60;;;;;;4993221;28;20379;-64
2022/10/09 06:41:51;;;;;;;1.10;0.90;;;21.80;57.60;;;;;;4993314;28;20132;-65
2022/10/09 06:44:17;;;;;;;1.40;0.80;;;21.80;57.60;;;;;;4998244;28;20153;-65
2022/10/09 06:46:44;;;;;;;0.90;0.77;;;21.80;57.70;;;;;;4998788;28;20031;-65
2022/10/09 06:49:11;;;;;;;1.20;1.10;;;21.70;57.60;;;;;;4997116;28;20125;-64
2022/10/09 06:51:37;;;;;;;1.33;0.98;;;21.80;57.70;;;;;;4999783;28;20033;-65
2022/10/09 06:54:09;;;;;;;1.10;0.85;;;21.80;57.70;;;;;;4996363;28;20105;-64
2022/10/09 06:56:35;;;;;;;0.85;0.80;;;21.80;57.70;;;;;;4996132;28;20027;-64
2022/10/09 06:59:02;;;;;;;1.95;1.00;;;21.80;57.70;;;;;;4994206;28;20157;-63
2022/10/09 07:01:30;;;;;;;1.35;0.90;;;21.80;57.80;;;;;;4992558;28;20038;-64
2022/10/09 07:04:02;;;;;;;1.40;0.90;;;21.80;57.80;;;;;;4995240;28;20474;-64
2022/10/09 07:06:32;;;;;;;1.33;0.80;;;21.80;57.80;;;;;;4997980;28;20026;-64
2022/10/09 07:09:04;;;;;;;1.10;0.88;;;21.80;57.90;;;;;;4998096;28;20029;-64
2022/10/09 07:11:35;;;;;;;1.45;0.90;;;21.80;57.90;;;;;;4981873;28;20422;-64
2022/10/09 07:14:03;;;;;;;0.73;0.70;;;21.70;57.80;;;;;;4999621;28;20831;-64
2022/10/09 07:16:33;;;;;;;1.50;0.80;;;21.70;57.90;;;;;;4999437;28;20512;-64
2022/10/09 07:19:06;;;;;;;1.15;0.80;;;21.80;58.00;;;;;;4996508;28;20456;-63
2022/10/09 07:21:32;;;;;;;2.28;0.90;;;21.80;58.00;;;;;;5000159;28;20481;-64
2022/10/09 07:24:01;;;;;;;0.77;0.75;;;21.70;58.00;;;;;;4997338;28;20041;-64
2022/10/09 07:26:29;;;;;;;1.00;0.80;;;21.70;58.00;;;;;;4993428;28;20030;-64
2022/10/09 07:28:56;;;;;;;1.80;1.00;;;21.70;58.10;;;;;;4992889;28;20124;-64
2022/10/09 07:31:22;;;;;;;1.40;0.90;;;21.70;58.10;;;;;;5000812;28;20477;-63
2022/10/09 07:33:52;;;;;;;0.77;0.70;;;21.70;58.20;;;;;;5002485;28;20535;-64
2022/10/09 07:36:18;;;;;;;1.23;0.80;;;21.70;58.20;;;;;;5003934;28;20370;-64
2022/10/09 07:38:48;;;;;;;1.33;0.90;;;21.70;58.30;;;;;;5002490;28;20352;-63
2022/10/09 07:41:14;;;;;;;1.10;0.90;;;21.70;58.30;;;;;;4999131;28;20474;-63
2022/10/09 07:43:40;;;;;;;1.30;0.90;;;21.70;58.30;;;;;;4990354;28;20084;-62
2022/10/09 07:46:12;;;;;;;1.48;0.90;;;21.70;58.30;;;;;;5002710;28;20109;-64
2022/10/09 07:48:38;;;;;;;1.33;1.00;;;21.70;58.30;;;;;;5002021;28;20519;-63
2022/10/09 07:51:08;;;;;;;1.85;1.00;;;21.70;58.30;;;;;;4989562;28;20118;-63
2022/10/09 07:53:34;;;;;;;1.02;0.80;;;21.70;58.30;;;;;;4997126;28;20507;-63
2022/10/09 07:55:59;;;;;;;1.50;0.85;;;21.80;58.30;;;;;;4994687;28;20019;-64
2022/10/09 07:58:25;;;;;;;1.25;0.90;;;21.70;58.20;;;;;;5000439;28;20038;-63
2022/10/09 08:00:50;;;;;;;1.83;1.02;;;21.70;58.30;;;;;;4998116;28;20416;-63
2022/10/09 08:03:16;;;;;;;1.35;1.00;;;21.70;58.30;;;;;;4995895;28;20042;-63
2022/10/09 08:05:41;;;;;;;2.17;1.00;;;21.70;58.20;;;;;;4996500;28;20637;-63
2022/10/09 08:08:07;;;;;;;3.35;1.20;;;21.70;58.20;;;;;;4997902;28;20128;-63
2022/10/09 08:10:33;;;;;;;1.88;1.10;;;21.70;58.20;;;;;;4990241;28;20066;-64
2022/10/09 08:12:59;;;;;;;1.65;1.00;;;21.70;58.20;;;;;;4998856;28;20409;-63
2022/10/09 08:15:24;;;;;;;1.80;1.10;;;21.70;58.20;;;;;;4998676;28;20046;-63
2022/10/09 08:17:54;;;;;;;1.63;1.00;;;21.70;58.20;;;;;;5000415;28;20096;-63
2022/10/09 08:20:20;;;;;;;2.22;1.15;;;21.70;58.20;;;;;;4996642;28;20026;-63
2022/10/09 08:22:46;;;;;;;3.20;1.20;;;21.70;58.10;;;;;;4997945;28;20068;-63
2022/10/09 08:25:11;;;;;;;1.65;1.20;;;21.70;58.10;;;;;;4983338;28;20346;-64
2022/10/09 08:27:37;;;;;;;1.77;1.00;;;21.70;58.10;;;;;;5000750;28;20034;-64
2022/10/09 08:30:03;;;;;;;2.83;1.20;;;21.70;58.10;;;;;;4997590;28;20034;-64
2022/10/09 08:32:28;;;;;;;2.40;1.20;;;21.70;58.10;;;;;;4998719;28;20507;-64
2022/10/09 08:34:54;;;;;;;1.63;0.80;;;21.70;58.10;;;;;;4995548;28;20218;-64
2022/10/09 08:37:20;;;;;;;3.28;1.20;;;21.70;58.00;;;;;;4997814;28;20030;-64
2022/10/09 08:39:45;;;;;;;1.88;1.20;;;21.70;58.00;;;;;;4998233;28;20389;-64
2022/10/09 08:42:43;;;;;;;2.50;1.17;;;21.70;58.00;;;;;;4998333;28;20038;-64
2022/10/09 08:45:15;;;;;;;2.08;1.10;;;21.70;58.00;;;;;;4993022;28;20060;-63
2022/10/09 08:47:51;;;;;;;2.20;1.10;;;21.70;58.00;;;;;;4989890;28;20045;-64
2022/10/09 08:50:19;;;;;;;1.63;1.10;;;21.70;58.00;;;;;;4991860;28;20029;-64
2022/10/09 08:53:02;;;;;;;1.83;1.10;;;21.70;58.00;;;;;;4997930;28;20026;-63
2022/10/09 08:55:45;;;;;;;2.15;1.20;;;21.70;58.00;;;;;;4991199;28;20050;-64
2022/10/09 08:58:17;;;;;;;2.08;1.10;;;21.70;58.00;;;;;;4987189;28;20049;-64
2022/10/09 09:00:46;;;;;;;2.00;1.10;;;21.70;58.00;;;;;;4992838;28;20437;-63
2022/10/09 09:03:47;;;;;;;;;;;21.70;58.00;;;;;;4998111;28;20026;-63
2022/10/09 09:06:28;;;;;;;1.75;1.20;;;21.70;58.00;;;;;;4902107;29;20030;-63
2022/10/09 09:09:08;;;;;;;1.98;1.10;;;21.60;58.00;;;;;;4988253;28;20046;-64
2022/10/09 09:11:53;;;;;;;2.08;1.08;;;21.60;58.00;;;;;;4997219;28;20387;-63
2022/10/09 09:14:33;;;;;;;1.85;1.10;;;21.60;57.90;;;;;;4996025;28;20051;-64
2022/10/09 09:17:17;;;;;;;2.55;1.13;;;21.60;58.00;;;;;;5000562;28;20026;-63
2022/10/09 09:19:49;;;;;;;2.33;1.10;;;21.60;58.00;;;;;;4994524;28;20048;-64
2022/10/09 09:22:15;;;;;;;1.92;1.15;;;21.60;58.00;;;;;;4975278;28;20030;-64
2022/10/09 09:24:56;;;;;;;2.33;1.27;;;21.60;58.00;;;;;;4991520;28;20201;-64
2022/10/09 09:27:33;;;;;;;2.22;1.25;;;21.60;58.00;;;;;;4999656;28;20430;-64
2022/10/09 09:30:25;;;;;;;2.03;1.20;;;21.60;58.10;;;;;;4999587;28;20026;-64
2022/10/09 09:33:12;;;;;;;2.10;1.27;;;21.60;58.00;;;;;;4970865;28;20532;-63
2022/10/09 09:36:06;;;;;;;2.28;1.17;;;21.70;58.10;;;;;;4992093;28;20034;-64
2022/10/09 09:38:31;;;;;;;1.98;1.23;;;21.60;58.10;;;;;;4995669;28;20030;-64
2022/10/09 09:40:57;;;;;;;2.10;1.20;;;21.60;58.10;;;;;;4992283;28;20030;-64
2022/10/09 09:43:25;;;;;;;2.28;1.15;;;21.60;58.10;;;;;;5000170;28;20129;-63
2022/10/09 09:45:56;;;;;;;1.85;1.20;;;21.60;58.10;;;;;;4999114;28;20030;-64
2022/10/09 09:48:37;;;;;;;1.70;1.00;;;21.60;58.10;;;;;;4999435;28;20041;-63
2022/10/09 09:51:06;;;;;;;3.35;1.00;;;21.60;58.20;;;;;;5000860;28;20069;-63
2022/10/09 09:53:39;;;;;;;1.98;1.05;;;21.60;58.10;;;;;;4996624;28;20523;-63
2022/10/09 09:56:06;;;;;;;2.50;1.10;;;21.60;58.10;;;;;;4997418;28;20080;-63
2022/10/09 09:58:54;;;;;;;1.70;1.05;;;21.60;58.20;;;;;;4994556;28;20514;-64
2022/10/09 10:01:24;;;;;;;2.60;1.20;;;21.60;58.20;;;;;;4995910;28;20096;-62
2022/10/09 10:03:52;;;;;;;1.80;1.10;;;21.60;58.20;;;;;;4996363;28;20367;-63
2022/10/09 10:06:24;;;;;;;1.48;1.00;;;21.70;58.30;;;;;;4994245;28;20477;-63
2022/10/09 10:09:04;;;;;;;1.80;1.10;;;21.60;58.20;;;;;;4995498;28;20153;-64
2022/10/09 10:11:33;;;;;;;2.58;1.10;;;21.60;58.20;;;;;;4996332;28;20030;-63
2022/10/09 10:14:06;;;;;;;2.25;1.20;;;21.60;58.20;;;;;;4993417;28;20049;-63
2022/10/09 10:16:37;;;;;;;1.90;1.20;;;21.60;58.20;;;;;;4986558;28;20517;-63
2022/10/09 10:19:05;;;;;;;3.13;1.38;;;21.60;58.30;;;;;;4993795;28;20058;-63
2022/10/09 10:21:40;;;;;;;1.95;1.13;;;21.60;58.30;;;;;;4995999;28;20045;-63
2022/10/09 10:24:14;;;;;;;3.03;1.20;;;21.60;58.30;;;;;;5000281;28;20025;-63
2022/10/09 10:27:02;;;;;;;2.70;1.20;;;21.60;58.30;;;;;;4995396;28;20030;-62
2022/10/09 10:29:43;;;;;;;1.53;1.00;;;21.60;58.30;;;;;;4995801;28;20478;-62
2022/10/09 10:32:14;;;;;;;3.67;1.17;;;21.70;58.40;;;;;;4996627;28;20026;-63
2022/10/09 10:35:05;;;;;;;2.00;1.00;;;21.60;58.40;;;;;;4996069;28;20038;-62
2022/10/09 10:37:56;;;;;;;2.72;1.48;;;21.70;58.40;;;;;;5000200;28;20030;-63
2022/10/09 10:40:36;;;;;;;2.30;1.23;;;21.60;58.40;;;;;;4999082;28;20027;-62
2022/10/09 10:43:08;;;;;;;2.30;1.20;;;21.60;58.40;;;;;;4998479;28;20492;-63
2022/10/09 10:45:42;;;;;;;1.55;0.98;;;21.60;58.40;;;;;;4999537;28;20532;-62
2022/10/09 10:48:28;;;;;;;2.65;1.13;;;21.60;58.40;;;;;;4998674;28;20062;-63
2022/10/09 10:51:01;;;;;;;2.13;1.13;;;21.60;58.40;;;;;;4996604;28;20094;-64
2022/10/09 10:53:46;;;;;;;1.83;1.10;;;21.60;58.40;;;;;;4996532;28;20366;-67
2022/10/09 10:56:30;;;;;;;1.90;1.00;;;21.70;58.80;;;;;;5004457;28;20114;-67
2022/10/09 10:59:17;;;;;;;1.70;1.00;;;21.70;59.00;;;;;;5006281;28;20476;-66
2022/10/09 11:02:06;;;;;;;2.88;1.40;;;21.70;59.10;;;;;;5000265;28;20033;-66
2022/10/09 11:04:54;;;;;;;2.05;1.10;;;21.70;59.20;;;;;;5004829;28;20489;-65
2022/10/09 11:07:20;;;;;;;3.05;1.30;;;21.80;59.00;;;;;;5000469;28;20430;-64
2022/10/09 11:09:56;;;;;;;2.33;1.33;;;21.90;58.90;;;;;;4998979;28;20049;-65
2022/10/09 11:13:00;;;;;;;2.55;1.42;;;21.90;58.80;;;;;;4999698;28;20048;-69
2022/10/09 11:15:53;;;;;;;2.92;1.27;;;21.90;58.80;;;;;;4957319;28;20554;-71
2022/10/09 11:18:56;;;;;;;2.40;1.20;;;22.00;59.00;;;;;;4978910;28;20031;-68
2022/10/09 11:21:28;;;;;;;2.58;1.38;;;22.10;58.90;;;;;;4987662;28;20031;-74
2022/10/09 11:24:12;;;;;;;2.22;1.20;;;22.20;58.60;;;;;;4984915;28;20081;-68
2022/10/09 11:26:59;;;;;;;2.75;1.23;;;22.40;58.30;;;;;;4982574;28;20093;-68
2022/10/09 11:29:40;;;;;;;2.35;1.30;;;22.50;57.90;;;;;;4985389;28;20501;-68
2022/10/09 11:32:23;;;;;;;1.70;1.17;;;22.60;57.60;;;;;;4984848;28;20046;-71
2022/10/09 11:35:01;;;;;;;2.15;1.27;;;22.70;57.30;;;;;;4986350;28;20055;-68
2022/10/09 11:37:33;;;;;;;2.00;1.10;;;22.90;57.00;;;;;;4985440;28;20031;-70
2022/10/09 11:40:03;;;;;;;3.03;1.40;;;23.00;56.70;;;;;;4981209;28;20031;-69
2022/10/09 11:42:30;;;;;;;2.15;1.17;;;23.10;56.50;;;;;;4982078;28;20047;-66
2022/10/09 11:45:08;;;;;;;2.90;1.30;;;23.20;56.40;;;;;;4998745;28;20030;-66
2022/10/09 11:48:27;;;;;;;3.08;1.20;;;23.20;56.00;;;;;;4983957;28;20034;-72
2022/10/09 11:50:59;;;;;;;;;;;23.40;55.80;;;;;;4955260;28;20502;-69
2022/10/09 11:53:27;;;;;;;3.05;1.30;;;23.50;55.60;;;;;;4984153;28;19916;-77
2022/10/09 11:56:17;;;;;;;2.60;1.30;;;23.50;55.40;;;;;;4973533;28;20375;-67
2022/10/09 11:58:43;;;;;;;2.60;1.10;;;23.50;55.60;;;;;;4980541;28;20147;-68
2022/10/09 12:01:32;;;;;;;3.28;1.35;;;23.50;55.60;;;;;;4977516;28;20110;-67
2022/10/09 12:04:02;;;;;;;4.70;1.63;;;23.50;55.60;;;;;;4967347;28;20544;-68
2022/10/09 12:06:29;;;;;;;2.38;1.35;;;23.50;55.70;;;;;;4978667;28;20133;-67
2022/10/09 12:08:59;;;;;;;2.25;1.30;;;23.50;55.70;;;;;;4998327;28;20027;-68
2022/10/09 12:11:26;;;;;;;4.50;1.55;;;23.50;55.60;;;;;;4979509;28;20126;-68
2022/10/09 12:13:53;;;;;;;2.80;1.33;;;23.50;55.50;;;;;;4985161;28;20050;-68
2022/10/09 12:16:37;;;;;;;3.95;1.35;;;23.50;55.40;;;;;;5001083;28;20035;-69
2022/10/09 12:19:25;;;;;;;2.15;1.27;;;23.50;55.30;;;;;;4996994;28;20141;-68
2022/10/09 12:21:59;;;;;;;1.88;1.10;;;23.40;55.20;;;;;;4971536;28;20042;-68
2022/10/09 12:24:30;;;;;;;2.78;1.23;;;23.50;55.30;;;;;;5000630;28;20029;-68
2022/10/09 12:27:02;;;;;;;3.10;1.40;;;23.50;55.20;;;;;;4999239;28;20481;-68
2022/10/09 12:29:52;;;;;;;3.83;1.27;;;23.40;55.20;;;;;;4976582;28;20026;-68
2022/10/09 12:32:37;;;;;;;3.85;1.40;;;23.40;55.20;;;;;;4996546;28;20038;-68
2022/10/09 12:35:34;;;;;;;3.08;1.30;;;23.40;55.20;;;;;;4997320;28;20393;-69
2022/10/09 12:37:59;;;;;;;2.63;1.25;;;23.40;55.20;;;;;;4972610;28;20092;-69
2022/10/09 12:40:32;;;;;;;2.53;1.20;;;23.40;55.10;;;;;;4999033;28;21014;-68
2022/10/09 12:43:04;;;;;;;2.13;1.20;;;23.40;55.20;;;;;;4998752;28;20102;-69
2022/10/09 12:45:30;;;;;;;2.40;1.20;;;23.40;55.10;;;;;;4993805;28;20039;-69
2022/10/09 12:48:06;;;;;;;1.95;1.00;;;23.40;55.20;;;;;;4991220;28;20431;-69
2022/10/09 12:50:33;;;;;;;2.70;1.45;;;23.30;55.20;;;;;;4992998;28;20034;-69
2022/10/09 12:53:03;;;;;;;2.17;1.10;;;23.30;55.20;;;;;;4985726;28;20041;-69
2022/10/09 12:55:32;;;;;;;1.88;1.17;;;23.30;55.20;;;;;;5000953;28;20458;-68
2022/10/09 12:58:07;;;;;;;2.30;1.20;;;23.30;55.20;;;;;;5000912;28;20482;-68
2022/10/09 13:00:34;;;;;;;1.88;1.13;;;23.30;55.30;;;;;;4999599;28;20532;-70
2022/10/09 13:03:00;;;;;;;2.60;1.10;;;23.30;55.90;;;;;;4986060;28;20030;-68
2022/10/09 13:05:41;;;;;;;2.67;1.30;;;23.30;55.40;;;;;;5000011;28;20041;-68
2022/10/09 13:08:22;;;;;;;2.08;1.10;;;23.20;55.50;;;;;;4982744;28;20080;-68